Time;durP1;ratioP1;P1;durP2;ratioP2;P2;SDS_P1;SDS_P2;PMS_P1;PMS_P2;Temp;Humidity;BMP_temperature;BMP_pressure;BME280_temperature;BME280_humidity;BME280_pressure;Samples;Min_cycle;Max_cycle;Signal;HPM_P1;HPM_P2
2022/09/09 00:01:04;;;;;;;;;;;;;;;17.15;79.07;99180.53;5029666;28;20432;-86
2022/09/09 00:03:40;;;;;;;;;;;;;;;17.11;79.34;99175.97;5030242;28;20006;-86
2022/09/09 00:06:12;;;;;;;;;;;;;;;16.88;80.27;99171.41;5030926;28;19960;-87
2022/09/09 00:08:47;;;;;;;;;;;;;;;16.95;79.66;99173.69;5026945;28;19921;-88
2022/09/09 00:11:12;;;;;;;;;;;;;;;16.86;80.51;99181.94;5027446;28;19975;-87
2022/09/09 00:13:43;;;;;;;;;;;;;;;16.92;79.75;99169.63;5030594;28;20229;-87
2022/09/09 00:16:08;;;;;;;;;;;;;;;16.67;80.80;99180.31;5030627;28;19924;-87
2022/09/09 00:18:37;;;;;;;;;;;;;;;16.83;80.33;99179.03;5029681;28;19925;-87
2022/09/09 00:21:06;;;;;;;;;;;;;;;16.76;80.78;99179.50;5030414;28;19913;-81
2022/09/09 00:23:37;;;;;;;;;;;;;;;16.76;80.39;99171.25;5026213;28;19917;-80
2022/09/09 00:26:14;;;;;;;;;;;;;;;16.47;81.32;99156.13;5029055;28;19924;-80
2022/09/09 00:28:58;;;;;;;;;;;;;;;16.67;81.16;99158.28;5026867;28;19925;-80
2022/09/09 00:31:26;;;;;;;;;;;;;;;16.26;82.09;99159.47;5027817;28;20299;-81
2022/09/09 00:33:52;;;;;;;;;;;;;;;16.37;82.45;99155.31;5025638;28;19917;-81
2022/09/09 00:36:22;;;;;;;;;;;;;;;16.64;81.89;99156.16;5029245;28;19917;-87
2022/09/09 00:38:49;;;;;;;;;;;;;;;16.82;80.55;99147.94;5029909;28;19917;-87
2022/09/09 00:41:20;;;;;;;;;;;;;;;16.84;80.60;99145.66;5029200;28;20007;-87
2022/09/09 00:43:50;;;;;;;;;;;;;;;17.03;80.31;99150.06;5032948;28;19917;-88
2022/09/09 00:46:30;;;;;;;;;;;;;;;17.10;80.06;99147.63;5029500;28;20654;-82
2022/09/09 00:48:59;;;;;;;;;;;;;;;17.12;80.15;99148.16;5026328;28;20024;-80
2022/09/09 00:51:42;;;;;;;;;;;;;;;17.08;80.84;99149.91;5032539;28;19913;-88
2022/09/09 00:54:15;;;;;;;;;;;;;;;17.08;80.25;99144.41;5032894;28;20419;-88
2022/09/09 00:56:47;;;;;;;;;;;;;;;17.01;81.54;99149.56;5032907;28;19923;-81
2022/09/09 00:59:20;;;;;;;;;;;;;;;17.29;80.31;99146.50;5028880;28;19917;-81
2022/09/09 01:01:46;;;;;;;;;;;;;;;17.20;80.41;99145.72;5031965;28;20029;-82
2022/09/09 01:04:18;;;;;;;;;;;;;;;17.20;80.38;99140.22;5031700;28;20000;-82
2022/09/09 01:06:46;;;;;;;;;;;;;;;17.10;80.56;99144.06;5032420;28;19917;-81
2022/09/09 01:09:18;;;;;;;;;;;;;;;17.12;80.73;99141.81;5031640;28;19917;-81
2022/09/09 01:11:51;;;;;;;;;;;;;;;17.00;81.60;99142.44;5031865;28;19913;-82
2022/09/09 01:14:42;;;;;;;;;;;;;;;17.12;80.86;99145.41;5029709;28;19932;-82
2022/09/09 01:17:17;;;;;;;;;;;;;;;17.08;81.02;99144.41;5033208;28;20376;-86
2022/09/09 01:19:42;;;;;;;;;;;;;;;16.89;81.79;99145.53;5034425;28;19920;-86
2022/09/09 01:22:27;;;;;;;;;;;;;;;16.87;81.81;99147.78;5036216;28;20224;-86
2022/09/09 01:25:16;;;;;;;;;;;;;;;16.91;81.50;99146.00;5029050;28;20384;-86
2022/09/09 01:27:42;;;;;;;;;;;;;;;16.53;83.28;99149.34;5035634;28;19924;-82
2022/09/09 01:30:12;;;;;;;;;;;;;;;16.39;83.31;99146.72;5031188;28;19917;-82
2022/09/09 01:32:42;;;;;;;;;;;;;;;16.59;83.57;99145.31;5033110;28;19913;-88
2022/09/09 01:35:11;;;;;;;;;;;;;;;16.33;85.24;99138.59;5032646;28;20398;-88
2022/09/09 01:37:36;;;;;;;;;;;;;;;16.45;84.40;99145.44;5031889;28;19913;-81
2022/09/09 01:40:02;;;;;;;;;;;;;;;16.59;83.83;99145.31;5031380;28;19917;-81
2022/09/09 01:42:27;;;;;;;;;;;;;;;16.51;84.82;99151.63;5032233;28;19939;-86
2022/09/09 01:44:54;;;;;;;;;;;;;;;16.45;84.26;99143.50;5032768;28;20011;-86
2022/09/09 01:47:19;;;;;;;;;;;;;;;16.24;85.61;99137.78;5033109;28;19921;-86
2022/09/09 01:49:44;;;;;;;;;;;;;;;16.51;85.13;99132.34;5032120;28;20434;-86
2022/09/09 01:52:09;;;;;;;;;;;;;;;16.34;85.11;99144.94;5032288;28;19970;-86
2022/09/09 01:54:35;;;;;;;;;;;;;;;16.28;85.72;99136.00;5032216;28;20005;-86
2022/09/09 01:57:03;;;;;;;;;;;;;;;16.25;85.54;99135.84;5032428;28;19913;-88
2022/09/09 01:59:31;;;;;;;;;;;;;;;16.31;85.71;99142.81;5032112;28;20171;-88
2022/09/09 02:02:06;;;;;;;;;;;;;;;16.53;84.53;99141.09;5032267;28;19919;-88
2022/09/09 02:04:45;;;;;;;;;;;;;;;16.45;84.79;99138.00;5032693;28;19917;-89
2022/09/09 02:07:18;;;;;;;;;;;;;;;16.17;85.89;99140.97;5031949;28;19913;-81
2022/09/09 02:09:46;;;;;;;;;;;;;;;16.06;86.81;99145.16;5030785;28;19921;-82
2022/09/09 02:12:14;;;;;;;;;;;;;;;16.14;86.23;99143.56;5032553;28;19985;-89
2022/09/09 02:14:41;;;;;;;;;;;;;;;16.00;86.41;99141.72;5032615;28;19961;-89
2022/09/09 02:17:11;;;;;;;;;;;;;;;16.15;86.41;99137.75;5031438;28;19917;-82
2022/09/09 02:19:39;;;;;;;;;;;;;;;15.97;86.74;99125.84;5031057;28;19971;-83
2022/09/09 02:22:04;;;;;;;;;;;;;;;15.97;87.04;99132.16;5031225;28;19916;-81
2022/09/09 02:24:31;;;;;;;;;;;;;;;16.09;86.10;99137.06;5030864;28;19912;-81
2022/09/09 02:26:58;;;;;;;;;;;;;;;16.05;86.49;99138.06;5032088;28;20388;-88
2022/09/09 02:29:26;;;;;;;;;;;;;;;15.84;87.18;99133.06;5032270;28;20027;-88
2022/09/09 02:31:53;;;;;;;;;;;;;;;15.88;87.20;99139.56;5031510;28;19960;-81
2022/09/09 02:34:20;;;;;;;;;;;;;;;15.86;86.98;99152.81;5030449;28;20322;-81
2022/09/09 02:36:45;;;;;;;;;;;;;;;16.13;85.90;99142.75;5031143;28;20140;-83
2022/09/09 02:39:11;;;;;;;;;;;;;;;16.00;85.75;99147.22;5022816;28;20412;-83
2022/09/09 02:41:38;;;;;;;;;;;;;;;15.98;85.90;99147.53;5011377;28;19921;-82
2022/09/09 02:44:11;;;;;;;;;;;;;;;16.15;84.77;99150.69;5013111;28;19924;-88
2022/09/09 02:46:45;;;;;;;;;;;;;;;16.25;84.71;99144.09;5025405;28;19917;-89
2022/09/09 02:49:28;;;;;;;;;;;;;;;16.37;83.84;99143.47;5030268;28;20004;-81
2022/09/09 02:51:54;;;;;;;;;;;;;;;16.43;83.84;99137.50;5030687;28;19970;-85
2022/09/09 02:54:20;;;;;;;;;;;;;;;16.33;83.63;99143.31;5030983;28;20352;-82
2022/09/09 02:56:49;;;;;;;;;;;;;;;16.47;83.62;99145.13;5031006;28;19963;-83
2022/09/09 02:59:15;;;;;;;;;;;;;;;16.33;83.79;99143.31;5030010;28;19917;-81
2022/09/09 03:01:41;;;;;;;;;;;;;;;16.42;83.67;99137.81;5030678;28;20276;-81
2022/09/09 03:04:06;;;;;;;;;;;;;;;16.45;83.11;99140.75;5031393;28;20016;-86
2022/09/09 03:06:31;;;;;;;;;;;;;;;16.07;84.93;99130.25;5031468;28;19913;-86
2022/09/09 03:08:57;;;;;;;;;;;;;;;16.25;84.49;99139.38;5030429;28;19924;-82
2022/09/09 03:11:22;;;;;;;;;;;;;;;16.32;84.69;99137.00;5030223;28;19917;-82
2022/09/09 03:13:48;;;;;;;;;;;;;;;16.14;85.17;99130.63;5030302;28;19996;-82
2022/09/09 03:16:14;;;;;;;;;;;;;;;15.93;86.45;99125.66;5030232;28;19913;-81
2022/09/09 03:18:40;;;;;;;;;;;;;;;15.97;85.83;99123.91;5030216;28;19921;-88
2022/09/09 03:21:05;;;;;;;;;;;;;;;16.04;85.65;99115.25;5031350;28;19924;-88
2022/09/09 03:23:30;;;;;;;;;;;;;;;16.05;85.33;99116.84;5030184;28;19987;-88
2022/09/09 03:25:56;;;;;;;;;;;;;;;15.81;86.24;99118.00;5031136;28;19913;-88
2022/09/09 03:28:23;;;;;;;;;;;;;;;15.93;85.29;99119.34;5029978;28;19967;-81
2022/09/09 03:30:48;;;;;;;;;;;;;;;15.72;86.54;99115.22;5029634;28;19913;-81
2022/09/09 03:33:14;;;;;;;;;;;;;;;15.75;86.27;99120.09;5030341;28;19917;-88
2022/09/09 03:35:46;;;;;;;;;;;;;;;15.73;86.05;99122.34;5031663;28;19921;-88
2022/09/09 03:38:11;;;;;;;;;;;;;;;15.76;86.38;99115.41;5031273;28;19921;-88
2022/09/09 03:40:37;;;;;;;;;;;;;;;16.06;85.01;99128.66;5026711;28;20008;-88
2022/09/09 03:43:02;;;;;;;;;;;;;;;15.93;84.98;99117.41;5015244;28;19918;-88
2022/09/09 03:45:27;;;;;;;;;;;;;;;16.05;84.37;99113.31;5017896;28;20019;-88
2022/09/09 03:47:52;;;;;;;;;;;;;;;15.94;84.86;99120.97;5030084;28;20341;-80
2022/09/09 03:50:18;;;;;;;;;;;;;;;16.07;84.78;99119.25;5028792;28;19917;-80
2022/09/09 03:52:43;;;;;;;;;;;;;;;16.02;84.90;99117.50;5029700;28;19956;-81
2022/09/09 03:55:08;;;;;;;;;;;;;;;15.78;85.38;99121.41;5029608;28;19917;-81
2022/09/09 03:57:35;;;;;;;;;;;;;;;15.83;85.43;99123.19;5029817;28;20308;-87
2022/09/09 04:00:04;;;;;;;;;;;;;;;16.03;84.82;99126.56;5030777;28;19966;-87
2022/09/09 04:02:30;;;;;;;;;;;;;;;15.81;85.33;99122.69;5030382;28;19919;-81
2022/09/09 04:04:56;;;;;;;;;;;;;;;15.69;86.09;99126.84;5029025;28;19921;-81
2022/09/09 04:07:21;;;;;;;;;;;;;;;15.58;86.81;99129.03;5029517;28;19920;-81
2022/09/09 04:09:46;;;;;;;;;;;;;;;15.58;86.98;99120.78;5028570;28;19924;-81
2022/09/09 04:12:13;;;;;;;;;;;;;;;15.61;87.11;99122.09;5029323;28;19913;-82
2022/09/09 04:14:38;;;;;;;;;;;;;;;15.62;86.20;99121.00;5029490;28;20276;-81
2022/09/09 04:17:06;;;;;;;;;;;;;;;15.71;86.80;99123.78;5030117;28;19932;-82
2022/09/09 04:19:31;;;;;;;;;;;;;;;15.47;87.35;99124.94;5028829;28;19928;-81
2022/09/09 04:21:56;;;;;;;;;;;;;;;15.55;87.24;99117.88;5028968;28;19917;-82
2022/09/09 04:24:21;;;;;;;;;;;;;;;15.64;87.12;99118.75;5030836;28;19912;-81
2022/09/09 04:26:47;;;;;;;;;;;;;;;15.61;86.58;99124.84;5033023;28;19940;-81
2022/09/09 04:29:12;;;;;;;;;;;;;;;15.69;86.84;99121.34;5033064;28;20474;-82
2022/09/09 04:31:41;;;;;;;;;;;;;;;15.39;87.21;99112.78;5033333;28;20249;-82
2022/09/09 04:34:07;;;;;;;;;;;;;;;15.44;87.69;99123.63;5031908;28;19920;-83
2022/09/09 04:36:32;;;;;;;;;;;;;;;15.58;87.11;99120.00;5033028;28;19913;-82
2022/09/09 04:38:58;;;;;;;;;;;;;;;15.51;87.44;99124.00;5032927;28;20380;-82
2022/09/09 04:41:23;;;;;;;;;;;;;;;15.61;87.01;99120.19;5032784;28;20471;-82
2022/09/09 04:43:48;;;;;;;;;;;;;;;15.66;86.71;99124.75;5032932;28;19925;-80
2022/09/09 04:46:15;;;;;;;;;;;;;;;15.66;86.44;99121.19;5032861;28;19971;-81
2022/09/09 04:48:40;;;;;;;;;;;;;;;15.73;85.87;99122.34;5042086;28;19921;-82
2022/09/09 04:51:06;;;;;;;;;;;;;;;15.50;86.68;99130.59;5032569;28;19967;-81
2022/09/09 04:53:31;;;;;;;;;;;;;;;15.63;86.59;99125.34;5032954;28;19935;-83
2022/09/09 04:56:03;;;;;;;;;;;;;;;15.62;86.33;99126.50;5032701;28;20360;-82
2022/09/09 04:58:28;;;;;;;;;;;;;;;15.67;86.62;99128.28;5064613;28;19975;-82
2022/09/09 05:00:54;;;;;;;;;;;;;;;15.64;85.86;99129.75;5033051;28;19964;-83
2022/09/09 05:03:19;;;;;;;;;;;;;;;15.76;86.08;99124.44;5033481;28;19917;-87
2022/09/09 05:05:44;;;;;;;;;;;;;;;15.60;86.21;99118.53;5033696;28;19955;-86
2022/09/09 05:08:09;;;;;;;;;;;;;;;15.74;85.75;99120.41;5033854;28;19952;-88
2022/09/09 05:10:37;;;;;;;;;;;;;;;15.66;86.40;99113.75;5032869;28;20550;-88
2022/09/09 05:13:02;;;;;;;;;;;;;;;15.50;86.84;99116.88;5034140;28;19943;-88
2022/09/09 05:15:27;;;;;;;;;;;;;;;15.79;86.08;99116.69;5034398;28;19917;-88
2022/09/09 05:17:56;;;;;;;;;;;;;;;15.66;86.23;99124.75;5033476;28;19917;-81
2022/09/09 05:20:22;;;;;;;;;;;;;;;15.61;86.39;99130.34;5031419;28;19924;-81
2022/09/09 05:22:47;;;;;;;;;;;;;;;15.87;85.65;99129.66;5032313;28;19913;-83
2022/09/09 05:25:12;;;;;;;;;;;;;;;15.69;85.87;99126.84;5032040;28;20412;-83
2022/09/09 05:27:37;;;;;;;;;;;;;;;15.57;86.71;99124.69;5033013;28;19917;-81
2022/09/09 05:30:04;;;;;;;;;;;;;;;15.67;86.27;99123.59;5041685;28;19917;-81
2022/09/09 05:32:32;;;;;;;;;;;;;;;15.79;85.84;99122.19;5032541;28;19917;-86
2022/09/09 05:34:57;;;;;;;;;;;;;;;15.68;86.35;99118.94;5032874;28;20012;-87
2022/09/09 05:37:23;;;;;;;;;;;;;;;15.79;86.18;99125.75;5033475;28;20059;-86
2022/09/09 05:39:48;;;;;;;;;;;;;;;15.92;85.06;99129.56;5031300;28;19917;-86
2022/09/09 05:42:14;;;;;;;;;;;;;;;15.91;85.41;99127.91;5033091;28;19924;-83
2022/09/09 05:44:39;;;;;;;;;;;;;;;16.02;84.91;99134.00;5032281;28;20372;-83
2022/09/09 05:47:04;;;;;;;;;;;;;;;15.97;84.62;99125.84;5032741;28;19956;-89
2022/09/09 05:49:29;;;;;;;;;;;;;;;15.84;85.55;99133.88;5041732;28;19917;-88
2022/09/09 05:51:54;;;;;;;;;;;;;;;15.82;85.60;99129.81;5032618;28;20400;-88
2022/09/09 05:54:20;;;;;;;;;;;;;;;15.70;86.18;99131.19;5032904;28;19913;-88
2022/09/09 05:56:45;;;;;;;;;;;;;;;15.71;86.02;99135.59;5032542;28;19913;-89
2022/09/09 05:59:12;;;;;;;;;;;;;;;15.71;86.02;99135.59;5031912;28;20406;-83
2022/09/09 06:01:40;;;;;;;;;;;;;;;15.70;86.30;99133.94;5031840;28;19917;-83
2022/09/09 06:04:05;;;;;;;;;;;;;;;15.71;86.02;99130.09;5032050;28;19917;-82
2022/09/09 06:06:32;;;;;;;;;;;;;;;15.93;85.65;99142.16;5031662;28;19917;-83
2022/09/09 06:08:58;;;;;;;;;;;;;;;15.76;85.86;99131.91;5034358;28;20011;-86
2022/09/09 06:11:25;;;;;;;;;;;;;;;15.81;85.98;99137.25;5032050;28;20040;-87
2022/09/09 06:13:54;;;;;;;;;;;;;;;15.79;85.98;99136.75;5032522;28;20179;-88
2022/09/09 06:16:22;;;;;;;;;;;;;;;15.92;85.94;99140.53;5032244;28;19917;-88
2022/09/09 06:18:48;;;;;;;;;;;;;;;15.88;85.72;99143.09;5031224;28;19956;-86
2022/09/09 06:21:18;;;;;;;;;;;;;;;15.97;85.59;99137.66;5030628;28;19952;-86
2022/09/09 06:23:46;;;;;;;;;;;;;;;15.92;85.83;99143.28;5029812;28;19917;-83
2022/09/09 06:26:13;;;;;;;;;;;;;;;16.02;85.86;99141.41;5030823;28;19920;-83
2022/09/09 06:28:38;;;;;;;;;;;;;;;16.00;85.25;99141.72;5030733;28;19975;-83
2022/09/09 06:31:05;;;;;;;;;;;;;;;16.03;85.08;99134.81;5031089;28;19920;-83
2022/09/09 06:33:31;;;;;;;;;;;;;;;16.06;85.38;99136.91;5031163;28;19913;-83
2022/09/09 06:35:56;;;;;;;;;;;;;;;16.07;85.11;99131.09;5028801;28;20011;-84
2022/09/09 06:38:23;;;;;;;;;;;;;;;16.05;85.33;99138.06;5030871;28;19963;-88
2022/09/09 06:40:54;;;;;;;;;;;;;;;16.22;84.80;99137.28;5032020;28;19913;-88
2022/09/09 06:43:20;;;;;;;;;;;;;;;16.26;84.86;99138.28;5028843;28;19917;-88
2022/09/09 06:45:52;;;;;;;;;;;;;;;16.10;84.48;99140.66;5032857;28;19927;-88
2022/09/09 06:48:17;;;;;;;;;;;;;;;15.98;85.81;99144.78;5032218;28;19921;-86
2022/09/09 06:50:42;;;;;;;;;;;;;;;16.38;84.70;99145.91;5031950;28;19925;-87
2022/09/09 06:53:08;;;;;;;;;;;;;;;16.11;84.91;99136.75;5030332;28;20371;-86
2022/09/09 06:55:33;;;;;;;;;;;;;;;16.05;84.81;99140.81;5031071;28;19917;-86
2022/09/09 06:57:58;;;;;;;;;;;;;;;16.34;83.82;99151.25;5031242;28;19975;-88
2022/09/09 07:00:25;;;;;;;;;;;;;;;16.19;84.56;99143.44;5031188;28;20336;-88
2022/09/09 07:02:50;;;;;;;;;;;;;;;16.10;84.57;99151.63;5031163;28;20147;-83
2022/09/09 07:05:16;;;;;;;;;;;;;;;16.32;83.64;99156.25;5028953;28;20328;-82
2022/09/09 07:07:41;;;;;;;;;;;;;;;16.22;84.17;99149.09;5030617;28;19917;-83
2022/09/09 07:10:07;;;;;;;;;;;;;;;16.04;84.34;99152.91;5032780;28;19917;-83
2022/09/09 07:12:32;;;;;;;;;;;;;;;15.94;84.53;99143.78;5030456;28;19913;-81
2022/09/09 07:14:57;;;;;;;;;;;;;;;15.99;84.12;99160.13;5029887;28;20466;-81
2022/09/09 07:17:23;;;;;;;;;;;;;;;15.98;83.39;99155.78;5030134;28;19947;-86
2022/09/09 07:19:48;;;;;;;;;;;;;;;16.15;83.63;99162.47;5030968;28;19952;-86
2022/09/09 07:22:14;;;;;;;;;;;;;;;16.64;82.25;99164.41;5033642;28;19917;-85
2022/09/09 07:24:39;;;;;;;;;;;;;;;16.75;81.92;99164.94;5033172;28;19921;-83
2022/09/09 07:27:05;;;;;;;;;;;;;;;16.67;82.12;99162.97;5032960;28;20281;-84
2022/09/09 07:29:30;;;;;;;;;;;;;;;16.64;81.67;99171.84;5029796;28;19917;-83
2022/09/09 07:31:56;;;;;;;;;;;;;;;16.50;81.53;99169.22;5029950;28;19917;-83
2022/09/09 07:34:21;;;;;;;;;;;;;;;16.53;82.13;99166.69;5030362;28;19920;-83
2022/09/09 07:36:47;;;;;;;;;;;;;;;16.41;81.70;99167.28;5029879;28;19978;-82
2022/09/09 07:39:12;;;;;;;;;;;;;;;16.56;81.39;99173.47;5030580;28;19921;-88
2022/09/09 07:41:44;;;;;;;;;;;;;;;16.66;81.01;99169.59;5031271;28;19921;-88
2022/09/09 07:44:11;;;;;;;;;;;;;;;16.56;81.07;99178.97;5028236;28;19979;-81
2022/09/09 07:46:39;;;;;;;;;;;;;;;16.55;81.24;99172.66;5029559;28;19917;-81
2022/09/09 07:49:05;;;;;;;;;;;;;;;16.51;81.77;99170.88;5029533;28;19921;-83
2022/09/09 07:51:32;;;;;;;;;;;;;;;16.40;81.98;99176.66;5030124;28;19909;-83
2022/09/09 07:54:02;;;;;;;;;;;;;;;16.69;81.00;99172.53;5029204;28;20368;-85
2022/09/09 07:56:28;;;;;;;;;;;;;;;16.69;80.48;99163.47;5028244;28;20399;-85
2022/09/09 07:58:54;;;;;;;;;;;;;;;16.80;80.00;99166.72;5030347;28;19921;-88
2022/09/09 08:01:21;;;;;;;;;;;;;;;16.97;79.77;99173.38;5034364;28;19955;-88
2022/09/09 08:03:51;;;;;;;;;;;;;;;17.03;79.06;99164.63;5034091;28;19917;-83
2022/09/09 08:06:16;;;;;;;;;;;;;;;16.99;78.66;99171.91;5033814;28;19913;-82
2022/09/09 08:08:43;;;;;;;;;;;;;;;17.10;78.19;99171.59;5034307;28;19924;-87
2022/09/09 08:11:11;;;;;;;;;;;;;;;17.11;78.17;99168.53;5033529;28;19913;-88
2022/09/09 08:13:37;;;;;;;;;;;;;;;17.11;77.23;99170.47;5034776;28;19948;-88
2022/09/09 08:16:32;;;;;;;;;;;;;;;17.12;76.66;99177.59;5034801;28;20513;-87
2022/09/09 08:18:57;;;;;;;;;;;;;;;17.17;75.90;99176.66;5015210;28;19917;-84
2022/09/09 08:21:32;;;;;;;;;;;;;;;17.18;76.04;99176.34;5032875;28;19916;-84
2022/09/09 08:23:59;;;;;;;;;;;;;;;17.25;76.14;99176.66;5034721;28;20265;-88
2022/09/09 08:26:27;;;;;;;;;;;;;;;17.25;75.87;99171.13;5034672;28;19924;-88
2022/09/09 08:28:54;;;;;;;;;;;;;;;17.35;75.16;99170.00;5033440;28;19916;-83
2022/09/09 08:31:20;;;;;;;;;;;;;;;17.55;74.99;99173.25;5032206;28;20339;-83
2022/09/09 08:33:46;;;;;;;;;;;;;;;17.79;74.45;99177.41;5034384;28;20007;-88
2022/09/09 08:36:15;;;;;;;;;;;;;;;17.92;72.77;99181.09;5034698;28;20003;-87
2022/09/09 08:38:41;;;;;;;;;;;;;;;18.06;72.46;99177.34;5033181;28;20152;-81
2022/09/09 08:41:09;;;;;;;;;;;;;;;18.11;71.72;99184.59;5032488;28;20182;-81
2022/09/09 08:43:35;;;;;;;;;;;;;;;18.21;71.83;99178.75;5033355;28;19987;-89
2022/09/09 08:46:19;;;;;;;;;;;;;;;18.29;71.48;99188.94;5034426;28;20397;-90
2022/09/09 08:48:47;;;;;;;;;;;;;;;18.43;69.55;99182.38;5033367;28;19939;-89
2022/09/09 08:51:13;;;;;;;;;;;;;;;18.33;69.84;99180.00;5033600;28;19913;-89
2022/09/09 08:53:42;;;;;;;;;;;;;;;18.36;69.53;99176.56;5032379;28;19913;-83
2022/09/09 08:56:13;;;;;;;;;;;;;;;18.47;69.29;99177.81;5032779;28;20372;-84
2022/09/09 08:58:43;;;;;;;;;;;;;;;18.62;68.33;99178.38;5033521;28;19916;-88
2022/09/09 09:01:09;;;;;;;;;;;;;;;18.61;67.61;99171.25;5034015;28;19956;-88
2022/09/09 09:03:45;;;;;;;;;;;;;;;18.92;67.28;99183.88;5033229;28;19956;-84
2022/09/09 09:06:26;;;;;;;;;;;;;;;19.02;66.42;99182.66;5033249;28;19913;-84
2022/09/09 09:09:00;;;;;;;;;;;;;;;19.06;64.99;99185.59;5032871;28;19979;-84
2022/09/09 09:11:26;;;;;;;;;;;;;;;18.77;64.56;99185.28;5031393;28;19921;-84
2022/09/09 09:13:54;;;;;;;;;;;;;;;18.72;65.24;99189.03;5033396;28;19913;-85
2022/09/09 09:16:23;;;;;;;;;;;;;;;18.87;65.19;99189.59;5033721;28;20019;-85
2022/09/09 09:18:50;;;;;;;;;;;;;;;18.88;64.83;99175.47;5031403;28;19925;-88
2022/09/09 09:21:21;;;;;;;;;;;;;;;18.95;64.44;99185.97;5033389;28;19924;-88
2022/09/09 09:23:55;;;;;;;;;;;;;;;18.78;64.75;99184.94;5033403;28;19959;-90
2022/09/09 09:26:22;;;;;;;;;;;;;;;18.51;65.02;99186.25;5033413;28;19979;-88
2022/09/09 09:28:48;;;;;;;;;;;;;;;18.55;64.97;99182.47;5033211;28;19917;-88
2022/09/09 09:31:13;;;;;;;;;;;;;;;18.55;64.81;99189.94;5033312;28;20257;-87
2022/09/09 09:33:46;;;;;;;;;;;;;;;18.59;65.01;99182.63;5032939;28;20375;-82
2022/09/09 09:36:15;;;;;;;;;;;;;;;18.63;64.83;99182.78;5032514;28;19962;-83
2022/09/09 09:38:50;;;;;;;;;;;;;;;18.78;64.61;99181.38;5032159;28;19943;-81
2022/09/09 09:41:18;;;;;;;;;;;;;;;18.97;63.93;99189.22;5031941;28;19983;-81
2022/09/09 09:43:53;;;;;;;;;;;;;;;18.84;65.26;99190.25;5032456;28;20647;-86
2022/09/09 09:46:20;;;;;;;;;;;;;;;18.99;64.24;99195.22;5032538;28;19913;-87
2022/09/09 09:48:55;;;;;;;;;;;;;;;18.87;63.54;99189.59;5031469;28;19963;-86
2022/09/09 09:51:22;;;;;;;;;;;;;;;18.51;63.77;99209.13;5031949;28;19969;-86
2022/09/09 09:53:49;;;;;;;;;;;;;;;18.44;64.82;99217.13;5032726;28;19913;-87
2022/09/09 09:56:14;;;;;;;;;;;;;;;18.20;65.94;99196.44;5033359;28;19917;-87
2022/09/09 09:58:49;;;;;;;;;;;;;;;18.42;65.58;99198.16;5032635;28;19924;-87
2022/09/09 10:01:26;;;;;;;;;;;;;;;18.51;65.43;99200.84;5032660;28;19956;-87
2022/09/09 10:03:53;;;;;;;;;;;;;;;18.65;65.44;99199.81;5031666;28;19913;-86
2022/09/09 10:06:29;;;;;;;;;;;;;;;19.02;65.43;99202.81;5032905;28;19913;-86
2022/09/09 10:08:54;;;;;;;;;;;;;;;18.99;64.97;99203.50;5032464;28;20436;-86
2022/09/09 10:11:32;;;;;;;;;;;;;;;19.11;63.64;99193.66;5032676;28;20000;-86
2022/09/09 10:14:17;;;;;;;;;;;;;;;19.00;63.54;99202.34;5031177;28;20383;-79
2022/09/09 10:16:45;;;;;;;;;;;;;;;18.92;62.83;99199.63;5031006;28;19948;-79
2022/09/09 10:19:15;;;;;;;;;;;;;;;19.10;63.36;99192.84;5034181;28;19924;-86
2022/09/09 10:21:52;;;;;;;;;;;;;;;19.04;62.83;99190.63;5034736;28;19981;-86
2022/09/09 10:24:23;;;;;;;;;;;;;;;19.09;62.20;99195.94;5031066;28;19913;-82
2022/09/09 10:26:55;;;;;;;;;;;;;;;18.95;62.31;99198.97;5031372;28;20388;-82
2022/09/09 10:29:28;;;;;;;;;;;;;;;19.09;62.31;99194.00;5030779;28;19956;-82
2022/09/09 10:32:03;;;;;;;;;;;;;;;19.23;61.72;99195.72;5030201;28;19917;-81
2022/09/09 10:34:55;;;;;;;;;;;;;;;19.32;59.47;99188.13;5029820;28;19916;-82
2022/09/09 10:37:26;;;;;;;;;;;;;;;19.57;59.45;99182.72;5031209;28;19924;-80
2022/09/09 10:39:58;;;;;;;;;;;;;;;19.60;57.72;99176.53;5029891;28;19921;-79
2022/09/09 10:42:26;;;;;;;;;;;;;;;19.77;57.29;99173.91;5030129;28;19917;-86
2022/09/09 10:45:05;;;;;;;;;;;;;;;19.68;57.16;99166.53;5030901;28;19913;-86
2022/09/09 10:47:38;;;;;;;;;;;;;;;19.93;55.76;99165.78;5020520;28;19939;-86
2022/09/09 10:50:03;;;;;;;;;;;;;;;19.83;56.17;99167.03;5035986;28;19964;-86
2022/09/09 10:52:37;;;;;;;;;;;;;;;19.67;56.46;99170.44;5047274;28;19952;-83
2022/09/09 10:55:10;;;;;;;;;;;;;;;19.77;56.46;99168.38;5029442;28;19923;-83
2022/09/09 10:57:43;;;;;;;;;;;;;;;20.00;56.65;99154.13;5031037;28;20533;-86
2022/09/09 11:00:27;;;;;;;;;;;;;;;20.09;55.38;99162.34;5030767;28;19925;-87
2022/09/09 11:02:55;;;;;;;;;;;;;;;19.91;56.90;99157.78;5029686;28;20375;-80
2022/09/09 11:05:26;;;;;;;;;;;;;;;19.87;56.43;99161.63;5029625;28;19917;-81
2022/09/09 11:07:54;;;;;;;;;;;;;;;20.11;56.04;99160.88;5030292;28;19921;-83
2022/09/09 11:10:19;;;;;;;;;;;;;;;20.54;55.47;99160.66;5031773;28;20441;-83
2022/09/09 11:12:48;;;;;;;;;;;;;;;20.36;54.57;99155.31;5030693;28;19924;-81
2022/09/09 11:15:19;;;;;;;;;;;;;;;20.14;55.37;99171.25;5030854;28;19917;-82
2022/09/09 11:17:49;;;;;;;;;;;;;;;20.21;55.46;99165.16;5018683;28;19917;-84
2022/09/09 11:20:15;;;;;;;;;;;;;;;20.48;54.65;99159.25;5026227;28;19932;-85
2022/09/09 11:22:47;;;;;;;;;;;;;;;20.29;55.22;99158.69;5011783;28;19921;-85
2022/09/09 11:25:26;;;;;;;;;;;;;;;20.25;54.58;99159.72;5023403;28;19917;-84
2022/09/09 11:28:11;;;;;;;;;;;;;;;20.02;55.11;99168.41;5025743;28;19917;-82
2022/09/09 11:30:40;;;;;;;;;;;;;;;20.25;54.84;99159.72;5045821;28;20051;-82
2022/09/09 11:33:16;;;;;;;;;;;;;;;20.11;55.37;99149.81;5022628;28;19965;-81
2022/09/09 11:35:47;;;;;;;;;;;;;;;20.40;54.77;99150.72;5010454;28;20293;-80
2022/09/09 11:38:21;;;;;;;;;;;;;;;20.42;54.47;99148.41;5010618;28;19948;-80
2022/09/09 11:40:53;;;;;;;;;;;;;;;20.30;54.52;99157.53;5010590;28;19921;-80
2022/09/09 11:43:40;;;;;;;;;;;;;;;20.13;54.87;99153.03;5010056;28;19920;-79
2022/09/09 11:46:07;;;;;;;;;;;;;;;20.15;55.31;99156.25;5019533;28;19921;-79
2022/09/09 11:48:39;;;;;;;;;;;;;;;20.33;54.49;99144.16;5029865;28;20404;-84
2022/09/09 11:51:08;;;;;;;;;;;;;;;19.98;55.70;99145.38;5031526;28;19913;-85
2022/09/09 11:53:49;;;;;;;;;;;;;;;19.76;55.39;99141.88;5029922;28;19924;-83
2022/09/09 11:56:23;;;;;;;;;;;;;;;19.42;56.86;99148.25;5030855;28;20005;-83
2022/09/09 11:59:03;;;;;;;;;;;;;;;19.50;56.34;99157.59;5030820;28;19921;-87
2022/09/09 12:01:29;;;;;;;;;;;;;;;19.68;56.71;99155.47;5030966;28;19909;-87
2022/09/09 12:04:01;;;;;;;;;;;;;;;19.51;56.92;99155.63;5020627;28;19947;-84
2022/09/09 12:06:41;;;;;;;;;;;;;;;19.37;56.84;99159.50;5010982;28;19914;-84
2022/09/09 12:09:08;;;;;;;;;;;;;;;19.33;58.50;99161.31;5019702;28;20002;-80
2022/09/09 12:11:34;;;;;;;;;;;;;;;19.36;61.91;99166.19;5029268;28;19967;-77
2022/09/09 12:14:03;;;;;;;;;;;;;;;19.24;63.76;99170.50;5029369;28;19924;-78
2022/09/09 12:16:30;;;;;;;;;;;;;;;18.68;67.17;99177.06;5029918;28;19913;-79
2022/09/09 12:19:03;;;;;;;;;;;;;;;18.55;69.26;99185.22;5029091;28;20347;-78
2022/09/09 12:21:47;;;;;;;;;;;;;;;18.15;71.38;99199.34;5029409;28;19913;-79
2022/09/09 12:24:38;;;;;;;;;;;;;;;18.04;72.90;99198.91;5021654;28;19913;-85
2022/09/09 12:27:22;;;;;;;;;;;;;;;18.31;73.71;99192.19;5021309;28;19925;-85
2022/09/09 12:29:55;;;;;;;;;;;;;;;18.53;72.65;99190.28;5025035;28;19932;-85
2022/09/09 12:32:22;;;;;;;;;;;;;;;18.76;72.92;99184.47;5029222;28;20007;-86
2022/09/09 12:34:51;;;;;;;;;;;;;;;18.78;75.65;99182.19;5011269;28;19920;-86
2022/09/09 12:37:40;;;;;;;;;;;;;;;18.71;74.96;99181.09;5011889;28;20396;-84
2022/09/09 12:40:20;;;;;;;;;;;;;;;18.66;73.69;99168.28;5025796;28;19921;-85
2022/09/09 12:42:45;;;;;;;;;;;;;;;18.87;72.92;99167.50;5030484;28;19913;-79
2022/09/09 12:45:18;;;;;;;;;;;;;;;19.06;71.51;99177.28;5028896;28;19928;-79
2022/09/09 12:47:58;;;;;;;;;;;;;;;18.71;71.85;99165.34;5019426;28;19956;-83
2022/09/09 12:50:34;;;;;;;;;;;;;;;18.95;71.85;99177.69;5033153;28;20007;-83
2022/09/09 12:53:10;;;;;;;;;;;;;;;18.87;71.89;99179.38;5034048;28;20386;-84
2022/09/09 12:55:37;;;;;;;;;;;;;;;18.67;73.14;99187.28;5033433;28;19924;-83
2022/09/09 12:58:05;;;;;;;;;;;;;;;18.57;74.48;99187.66;5033596;28;19921;-78